Theoreme — FAA9539 — position and weather

sailwx.info

Track history (hours):
 
Tides and Currents Weather Stations Pressure Air Temp Water Temp Dewpoint Dewpoint Depression Visibility Wind Speed Wind Dir Waves Ship Positions

Theoreme

Last reported at 2017-Aug-28 06:16 UTC. Time now 2017-Sep-22 22:37 UTC.
Position N 46°09' W 001°10'.
Warning: this ship's position is 25 days out of date.

Length 14 m.

Type: Pleasure craft. MMSI: 227173460.

Date/timePositionNaut miles runAvg speedWind from/ knotsBaromVisibWave heightAir tempDewpointWater temp
2017-Aug-28 06:16N 46°09' W 001°10'0 0.0
2017-Aug-28 05:45N 46°09' W 001°10'0 0.0
2017-Aug-28 05:16N 46°09' W 001°10'0 0.0
2017-Aug-28 04:58N 46°09' W 001°10'0 0.0
2017-Aug-28 04:22N 46°09' W 001°10'0 0.0
2017-Aug-28 01:16N 46°09' W 001°10'0 0.0
2017-Aug-28 00:40N 46°09' W 001°10'0 0.0
2017-Aug-28 00:28N 46°09' W 001°10'0 0.0
2017-Aug-27 09:58N 46°09' W 001°10'0 0.0
2017-Aug-27 09:28N 46°09' W 001°10'0 0.0
2017-Aug-27 08:28N 46°09' W 001°10'0 0.0
2017-Aug-27 07:04N 46°09' W 001°10'0 0.0
2017-Aug-27 01:46N 46°09' W 001°10'0 0.0
2017-Aug-27 00:58N 46°09' W 001°10'0 0.0
2017-Aug-27 00:22N 46°09' W 001°10'0 0.0
2017-Aug-26 23:58N 46°09' W 001°10'0 0.0
2017-Aug-26 23:28N 46°09' W 001°10'0 0.0
2017-Aug-26 22:40N 46°09' W 001°10'0 0.0
2017-Aug-26 11:34N 46°09' W 001°10'0 0.0
2017-Aug-26 11:04N 46°09' W 001°10'0 0.0
2017-Aug-26 10:46N 46°09' W 001°10'0 0.0
2017-Aug-26 09:40N 46°09' W 001°10'0 0.0
2017-Aug-26 08:16N 46°09' W 001°10'0 0.0
2017-Aug-26 07:58N 46°09' W 001°10'0 0.0
2017-Aug-26 07:28N 46°09' W 001°10'0 0.0
2017-Aug-26 06:58N 46°09' W 001°10'0 0.0
2017-Aug-26 06:28N 46°09' W 001°10'0 0.0
2017-Aug-26 05:58N 46°09' W 001°10'0 0.0
2017-Aug-26 05:28N 46°09' W 001°10'0 0.0
2017-Aug-26 03:28N 46°09' W 001°10'0 0.0
2017-Aug-26 02:52N 46°09' W 001°10'0 0.0
2017-Aug-26 02:28N 46°09' W 001°10'0 0.0
2017-Aug-26 01:52N 46°09' W 001°10'0 0.0
2017-Aug-26 01:28N 46°09' W 001°10'0 0.0
2017-Aug-26 00:40N 46°09' W 001°10'0 0.0
2017-Aug-26 00:28N 46°09' W 001°10'0 0.0
2017-Aug-25 23:58N 46°09' W 001°10'0 0.0
2017-Aug-25 23:22N 46°09' W 001°10'0 0.0
2017-Aug-25 22:58N 46°09' W 001°10'0 0.0
2017-Aug-25 21:46N 46°09' W 001°10'0 0.0
2017-Aug-25 18:00N 46°09' W 001°10'2 3.7
2017-Aug-25 17:31N 46°08' W 001°12'23 4.8
2017-Aug-25 12:38N 46°22' W 001°40'1 4.0
2017-Aug-25 12:19N 46°23' W 001°41'1 4.1
2017-Aug-25 11:58N 46°24' W 001°43'2 4.0
2017-Aug-25 11:30N 46°25' W 001°45'2 3.7
2017-Aug-25 11:00N 46°26' W 001°48'2 4.0
2017-Aug-25 10:30N 46°27' W 001°50'3 5.1
2017-Aug-25 10:00N 46°29' W 001°53'3 5.6
2017-Aug-25 09:30N 46°31' W 001°56'  
2017-Aug-22 18:14N 47°23' W 002°57'0 0.0
2017-Aug-22 17:50N 47°23' W 002°57'0 0.0
2017-Aug-22 17:29N 47°23' W 002°57'0 0.0
2017-Aug-22 16:53N 47°23' W 002°57'0 0.0
2017-Aug-22 15:53N 47°23' W 002°57'0 0.0
2017-Aug-22 15:26N 47°23' W 002°57'3 0.7
2017-Aug-22 10:52N 47°26' W 002°56'2 5.3
2017-Aug-22 10:28N 47°28' W 002°56'2 4.9
2017-Aug-22 09:58N 47°31' W 002°56'3 7.0
2017-Aug-22 09:30N 47°34' W 002°55'3 5.4
2017-Aug-22 08:58N 47°36' W 002°51'0 0.0
2017-Aug-22 08:22N 47°36' W 002°51'0 0.0
2017-Aug-22 07:58N 47°36' W 002°51'0 0.0
2017-Aug-22 07:28N 47°36' W 002°51'0 0.0
2017-Aug-22 06:55N 47°36' W 002°51'0 0.0
2017-Aug-22 06:28N 47°36' W 002°51'0 0.0
2017-Aug-22 05:58N 47°36' W 002°51'0 0.0
2017-Aug-22 05:28N 47°36' W 002°51'0 0.0
2017-Aug-22 04:55N 47°36' W 002°51'0 0.0
2017-Aug-22 04:25N 47°36' W 002°51'0 0.0
2017-Aug-22 03:58N 47°36' W 002°51'0 0.0
2017-Aug-22 03:19N 47°36' W 002°51'0 0.0
2017-Aug-22 02:49N 47°36' W 002°51'0 0.0
2017-Aug-22 02:22N 47°36' W 002°51'0 0.0
2017-Aug-22 01:55N 47°36' W 002°51'0 0.0
2017-Aug-22 01:13N 47°36' W 002°51'0 0.0
2017-Aug-22 00:55N 47°36' W 002°51'0 0.0
2017-Aug-22 00:28N 47°36' W 002°51'0 0.0
2017-Aug-21 23:58N 47°36' W 002°51'0 0.0
2017-Aug-21 23:28N 47°36' W 002°51'0 0.0
2017-Aug-21 22:55N 47°36' W 002°51'0 0.0
2017-Aug-21 22:28N 47°36' W 002°51'0 0.0
2017-Aug-21 21:58N 47°36' W 002°51'0 0.0
2017-Aug-21 21:28N 47°36' W 002°51'0 0.0
2017-Aug-21 20:58N 47°36' W 002°51'0 0.0
2017-Aug-21 20:25N 47°36' W 002°51'0 0.0
2017-Aug-21 19:58N 47°36' W 002°51'0 0.0
2017-Aug-21 19:28N 47°36' W 002°51'0 0.0
2017-Aug-21 18:58N 47°36' W 002°51'0 0.0
2017-Aug-21 18:28N 47°36' W 002°51'0 0.0
2017-Aug-21 17:55N 47°36' W 002°51'0 0.0
2017-Aug-21 17:22N 47°36' W 002°51'0 0.0
2017-Aug-21 16:58N 47°36' W 002°51'0 0.0
2017-Aug-21 16:28N 47°36' W 002°51'0 0.0
2017-Aug-21 15:58N 47°36' W 002°51'0 0.0
2017-Aug-21 15:25N 47°36' W 002°51'0 0.0
2017-Aug-21 14:58N 47°36' W 002°51'0 0.0
2017-Aug-21 14:28N 47°36' W 002°51'0 0.0
2017-Aug-21 13:58N 47°36' W 002°51'0 0.3
2017-Aug-21 13:30N 47°36' W 002°51'2 4.7
2017-Aug-21 13:00N 47°34' W 002°54'4 6.8
2017-Aug-21 12:29N 47°31' W 002°57'3 6.2
2017-Aug-21 11:56N 47°28' W 002°60'7 5.9
2017-Aug-21 10:48N 47°26' W 003°09'2 4.9
2017-Aug-21 10:24N 47°27' W 003°11'2 4.8
2017-Aug-21 09:59N 47°29' W 003°12'2 5.1
2017-Aug-21 09:30N 47°31' W 003°14'3 5.2
2017-Aug-21 09:00N 47°33' W 003°17'2 4.7
2017-Aug-21 08:30N 47°35' W 003°19'2 4.7
2017-Aug-21 08:00N 47°37' W 003°20'2 4.6
2017-Aug-21 07:30N 47°39' W 003°22'2 4.5
2017-Aug-21 07:00N 47°41' W 003°22'2 4.9
2017-Aug-21 06:30N 47°43' W 003°22'1 2.4
2017-Aug-21 05:58N 47°45' W 003°21'0 0.0
2017-Aug-21 05:28N 47°45' W 003°21'0 0.0
2017-Aug-21 04:58N 47°45' W 003°21'0 0.0
2017-Aug-21 04:28N 47°45' W 003°21'0 0.0
2017-Aug-21 03:58N 47°45' W 003°21'0 0.0
2017-Aug-21 03:28N 47°45' W 003°21'0 0.0
2017-Aug-21 02:58N 47°45' W 003°21'0 0.0
2017-Aug-21 02:28N 47°45' W 003°21'0 0.0
2017-Aug-21 01:58N 47°45' W 003°21'0 0.0
2017-Aug-21 01:28N 47°45' W 003°21'0 0.0
2017-Aug-21 00:58N 47°45' W 003°21'0 0.0
2017-Aug-21 00:28N 47°45' W 003°21'0 0.0
2017-Aug-20 23:58N 47°45' W 003°21'0 0.0
2017-Aug-20 23:28N 47°45' W 003°21'0 0.0
2017-Aug-20 22:58N 47°45' W 003°21'0 0.0
2017-Aug-20 22:28N 47°45' W 003°21'0 0.0
2017-Aug-20 21:58N 47°45' W 003°21'0 0.0
2017-Aug-20 21:28N 47°45' W 003°21'0 0.0
2017-Aug-20 20:58N 47°45' W 003°21'0 0.0
2017-Aug-20 20:28N 47°45' W 003°21'0 0.0
2017-Aug-20 19:58N 47°45' W 003°21'0 0.0
2017-Aug-20 19:28N 47°45' W 003°21'0 0.0
2017-Aug-20 18:58N 47°45' W 003°21'0 0.0
2017-Aug-20 18:28N 47°45' W 003°21'0 0.0
2017-Aug-20 17:55N 47°45' W 003°21'0 0.0
2017-Aug-20 17:25N 47°45' W 003°21'0 0.0
2017-Aug-20 16:58N 47°45' W 003°21'0 0.0
2017-Aug-20 16:28N 47°45' W 003°21'0 0.0
2017-Aug-20 15:58N 47°45' W 003°21'0 0.0
2017-Aug-20 15:28N 47°45' W 003°21'0 0.0
2017-Aug-20 14:58N 47°45' W 003°21'0 0.0
2017-Aug-20 14:28N 47°45' W 003°21'0 0.0
2017-Aug-20 13:58N 47°45' W 003°21'0 0.0
2017-Aug-20 13:28N 47°45' W 003°21'0 0.0
2017-Aug-20 12:58N 47°45' W 003°21'0 0.0
2017-Aug-20 12:28N 47°45' W 003°21'0 0.0
2017-Aug-20 11:58N 47°45' W 003°21'0 0.0
2017-Aug-20 11:28N 47°45' W 003°21'0 0.0
2017-Aug-20 10:58N 47°45' W 003°21'0 0.0
2017-Aug-20 10:28N 47°45' W 003°21'0 0.0
2017-Aug-20 09:58N 47°45' W 003°21'0 0.0
2017-Aug-20 09:28N 47°45' W 003°21'0 0.0
2017-Aug-20 08:58N 47°45' W 003°21'0 0.0
2017-Aug-20 08:28N 47°45' W 003°21'0 0.0
2017-Aug-20 07:58N 47°45' W 003°21'0 0.0
2017-Aug-20 07:28N 47°45' W 003°21'0 0.0
2017-Aug-20 06:55N 47°45' W 003°21'0 0.0
2017-Aug-20 06:28N 47°45' W 003°21'0 0.0
2017-Aug-20 05:58N 47°45' W 003°21'0 0.0
2017-Aug-20 05:25N 47°45' W 003°21'0 0.0
2017-Aug-20 04:58N 47°45' W 003°21'0 0.0
2017-Aug-20 04:28N 47°45' W 003°21'0 0.0
2017-Aug-20 03:58N 47°45' W 003°21'0 0.0
2017-Aug-20 03:28N 47°45' W 003°21'0 0.0
2017-Aug-20 02:58N 47°45' W 003°21'0 0.0
2017-Aug-20 02:28N 47°45' W 003°21'0 0.0
2017-Aug-20 01:58N 47°45' W 003°21'0 0.0
2017-Aug-20 01:28N 47°45' W 003°21'0 0.0
2017-Aug-20 00:58N 47°45' W 003°21'0 0.0
2017-Aug-20 00:28N 47°45' W 003°21'0 0.0
2017-Aug-19 23:58N 47°45' W 003°21'0 0.0
2017-Aug-19 23:28N 47°45' W 003°21'0 0.0
2017-Aug-19 22:58N 47°45' W 003°21'0 0.0
2017-Aug-19 22:28N 47°45' W 003°21'0 0.0
2017-Aug-19 21:58N 47°45' W 003°21'0 0.0
2017-Aug-19 21:28N 47°45' W 003°21'0 0.0
2017-Aug-19 20:58N 47°45' W 003°21'0 0.0
2017-Aug-19 20:25N 47°45' W 003°21'0 0.0
2017-Aug-19 19:58N 47°45' W 003°21'0 0.0
2017-Aug-19 19:28N 47°45' W 003°21'0 0.0
2017-Aug-19 18:55N 47°45' W 003°21'0 0.0
2017-Aug-19 18:28N 47°45' W 003°21'0 0.0
2017-Aug-19 17:58N 47°45' W 003°21'0 0.0
2017-Aug-19 17:28N 47°45' W 003°21'0 0.0
2017-Aug-19 16:58N 47°45' W 003°21'0 0.0
2017-Aug-19 16:28N 47°45' W 003°21'0 0.0
2017-Aug-19 15:58N 47°45' W 003°21'0 0.0
2017-Aug-19 15:28N 47°45' W 003°21'0 0.0
2017-Aug-19 14:58N 47°45' W 003°21'0 0.0
2017-Aug-19 13:58N 47°45' W 003°21'1 1.6
2017-Aug-19 13:30N 47°44' W 003°21'2 4.0
2017-Aug-19 13:00N 47°42' W 003°22'2 4.9
2017-Aug-19 12:30N 47°40' W 003°25'2 3.5
2017-Aug-19 11:55N 47°39' W 003°27'0 0.0
2017-Aug-19 11:25N 47°39' W 003°27'0 0.0
2017-Aug-19 10:58N 47°39' W 003°27'0 0.0
2017-Aug-19 10:28N 47°39' W 003°27'0 0.0
2017-Aug-19 09:55N 47°39' W 003°27'0 0.0
2017-Aug-19 09:22N 47°39' W 003°27'0 0.0
2017-Aug-19 08:55N 47°39' W 003°27'0 0.0
2017-Aug-19 08:28N 47°39' W 003°27'0 0.0
2017-Aug-19 07:58N 47°39' W 003°27'0 0.0
2017-Aug-19 07:28N 47°39' W 003°27'0 0.0
2017-Aug-19 06:58N 47°39' W 003°27'0 0.0
2017-Aug-19 06:28N 47°39' W 003°27'0 0.0
2017-Aug-19 05:58N 47°39' W 003°27'0 0.0
2017-Aug-19 05:25N 47°39' W 003°27'0 0.0
2017-Aug-19 04:58N 47°39' W 003°27'0 0.0
2017-Aug-19 04:25N 47°39' W 003°27'0 0.0
2017-Aug-19 03:58N 47°39' W 003°27'0 0.0
2017-Aug-19 03:25N 47°39' W 003°27'0 0.0
2017-Aug-19 02:58N 47°39' W 003°27'0 0.0
2017-Aug-19 02:28N 47°39' W 003°27'0 0.0
2017-Aug-19 01:58N 47°39' W 003°27'0 0.0
2017-Aug-19 01:28N 47°39' W 003°27'0 0.0
2017-Aug-19 00:58N 47°39' W 003°27'0 0.0
2017-Aug-19 00:28N 47°39' W 003°27'0 0.0
2017-Aug-18 23:58N 47°39' W 003°27'0 0.0
2017-Aug-18 23:28N 47°39' W 003°27'0 0.0
2017-Aug-18 22:55N 47°39' W 003°27'0 0.0
2017-Aug-18 22:22N 47°39' W 003°27'0 0.0
2017-Aug-18 21:58N 47°39' W 003°27'0 0.0
2017-Aug-18 21:28N 47°39' W 003°27'0 0.0
2017-Aug-18 20:55N 47°39' W 003°27'0 0.0
2017-Aug-18 20:28N 47°39' W 003°27'0 0.0
2017-Aug-18 19:58N 47°39' W 003°27'0 0.0
2017-Aug-18 19:28N 47°39' W 003°27'0 0.0
2017-Aug-18 18:49N 47°39' W 003°27'0 0.0
2017-Aug-18 18:25N 47°39' W 003°27'0 0.0
2017-Aug-18 17:58N 47°39' W 003°27'0 0.0
2017-Aug-18 17:28N 47°39' W 003°27'0 0.0
2017-Aug-18 16:58N 47°39' W 003°27'0 0.0
2017-Aug-18 16:25N 47°39' W 003°27'0 0.0
2017-Aug-18 15:58N 47°39' W 003°27'0 0.0
2017-Aug-18 15:28N 47°39' W 003°27'0 0.0
2017-Aug-18 14:49N 47°39' W 003°27'0 0.0
2017-Aug-18 14:28N 47°39' W 003°27'0 0.0
2017-Aug-18 13:28N 47°39' W 003°27'0 0.0
2017-Aug-18 12:55N 47°39' W 003°27'0 0.0
2017-Aug-18 12:28N 47°39' W 003°27'0 0.0
2017-Aug-18 11:58N 47°39' W 003°27'0 0.0
2017-Aug-18 11:28N 47°39' W 003°27'0 0.0
2017-Aug-18 10:58N 47°39' W 003°27'0 0.0
2017-Aug-18 10:25N 47°39' W 003°27'0 0.0
2017-Aug-18 09:43N 47°39' W 003°27'0 0.0
2017-Aug-18 09:28N 47°39' W 003°27'0 0.0
2017-Aug-18 08:58N 47°39' W 003°27'0 0.0
2017-Aug-18 08:28N 47°39' W 003°27'0 0.0
2017-Aug-18 07:58N 47°39' W 003°27'0 0.0
2017-Aug-18 07:25N 47°39' W 003°27'0 0.0
2017-Aug-18 06:58N 47°39' W 003°27'0 0.0
2017-Aug-18 06:28N 47°39' W 003°27'  
Track history (hours):
 
Tides and Currents Weather Stations Pressure Air Temp Water Temp Dewpoint Dewpoint Depression Visibility Wind Speed Wind Dir Waves Ship Positions

Theoreme

Last reported at 2017-Aug-28 06:16 UTC. Time now 2017-Sep-22 22:37 UTC.
Position N 46°09' W 001°10'.
Warning: this ship's position is 25 days out of date.

Length 14 m.

Type: Pleasure craft. MMSI: 227173460.

Date/timePositionNaut miles runAvg speedWind from/ knotsBaromVisibWave heightAir tempDewpointWater temp
2017-Aug-28 06:16N 46°09' W 001°10'0 0.0
2017-Aug-28 05:45N 46°09' W 001°10'0 0.0
2017-Aug-28 05:16N 46°09' W 001°10'0 0.0
2017-Aug-28 04:58N 46°09' W 001°10'0 0.0
2017-Aug-28 04:22N 46°09' W 001°10'0 0.0
2017-Aug-28 01:16N 46°09' W 001°10'0 0.0
2017-Aug-28 00:40N 46°09' W 001°10'0 0.0
2017-Aug-28 00:28N 46°09' W 001°10'0 0.0
2017-Aug-27 09:58N 46°09' W 001°10'0 0.0
2017-Aug-27 09:28N 46°09' W 001°10'0 0.0
2017-Aug-27 08:28N 46°09' W 001°10'0 0.0
2017-Aug-27 07:04N 46°09' W 001°10'0 0.0
2017-Aug-27 01:46N 46°09' W 001°10'0 0.0
2017-Aug-27 00:58N 46°09' W 001°10'0 0.0
2017-Aug-27 00:22N 46°09' W 001°10'0 0.0
2017-Aug-26 23:58N 46°09' W 001°10'0 0.0
2017-Aug-26 23:28N 46°09' W 001°10'0 0.0
2017-Aug-26 22:40N 46°09' W 001°10'0 0.0
2017-Aug-26 11:34N 46°09' W 001°10'0 0.0
2017-Aug-26 11:04N 46°09' W 001°10'0 0.0
2017-Aug-26 10:46N 46°09' W 001°10'0 0.0
2017-Aug-26 09:40N 46°09' W 001°10'0 0.0
2017-Aug-26 08:16N 46°09' W 001°10'0 0.0
2017-Aug-26 07:58N 46°09' W 001°10'0 0.0
2017-Aug-26 07:28N 46°09' W 001°10'0 0.0
2017-Aug-26 06:58N 46°09' W 001°10'0 0.0
2017-Aug-26 06:28N 46°09' W 001°10'0 0.0
2017-Aug-26 05:58N 46°09' W 001°10'0 0.0
2017-Aug-26 05:28N 46°09' W 001°10'0 0.0
2017-Aug-26 03:28N 46°09' W 001°10'0 0.0
2017-Aug-26 02:52N 46°09' W 001°10'0 0.0
2017-Aug-26 02:28N 46°09' W 001°10'0 0.0
2017-Aug-26 01:52N 46°09' W 001°10'0 0.0
2017-Aug-26 01:28N 46°09' W 001°10'0 0.0
2017-Aug-26 00:40N 46°09' W 001°10'0 0.0
2017-Aug-26 00:28N 46°09' W 001°10'0 0.0
2017-Aug-25 23:58N 46°09' W 001°10'0 0.0
2017-Aug-25 23:22N 46°09' W 001°10'0 0.0
2017-Aug-25 22:58N 46°09' W 001°10'0 0.0
2017-Aug-25 21:46N 46°09' W 001°10'0 0.0
2017-Aug-25 18:00N 46°09' W 001°10'2 3.7
2017-Aug-25 17:31N 46°08' W 001°12'23 4.8
2017-Aug-25 12:38N 46°22' W 001°40'1 4.0
2017-Aug-25 12:19N 46°23' W 001°41'1 4.1
2017-Aug-25 11:58N 46°24' W 001°43'2 4.0
2017-Aug-25 11:30N 46°25' W 001°45'2 3.7
2017-Aug-25 11:00N 46°26' W 001°48'2 4.0
2017-Aug-25 10:30N 46°27' W 001°50'3 5.1
2017-Aug-25 10:00N 46°29' W 001°53'3 5.6
2017-Aug-25 09:30N 46°31' W 001°56'  
2017-Aug-22 18:14N 47°23' W 002°57'0 0.0
2017-Aug-22 17:50N 47°23' W 002°57'0 0.0
2017-Aug-22 17:29N 47°23' W 002°57'0 0.0
2017-Aug-22 16:53N 47°23' W 002°57'0 0.0
2017-Aug-22 15:53N 47°23' W 002°57'0 0.0
2017-Aug-22 15:26N 47°23' W 002°57'3 0.7
2017-Aug-22 10:52N 47°26' W 002°56'2 5.3
2017-Aug-22 10:28N 47°28' W 002°56'2 4.9
2017-Aug-22 09:58N 47°31' W 002°56'3 7.0
2017-Aug-22 09:30N 47°34' W 002°55'3 5.4
2017-Aug-22 08:58N 47°36' W 002°51'0 0.0
2017-Aug-22 08:22N 47°36' W 002°51'0 0.0
2017-Aug-22 07:58N 47°36' W 002°51'0 0.0
2017-Aug-22 07:28N 47°36' W 002°51'0 0.0
2017-Aug-22 06:55N 47°36' W 002°51'0 0.0
2017-Aug-22 06:28N 47°36' W 002°51'0 0.0
2017-Aug-22 05:58N 47°36' W 002°51'0 0.0
2017-Aug-22 05:28N 47°36' W 002°51'0 0.0
2017-Aug-22 04:55N 47°36' W 002°51'0 0.0
2017-Aug-22 04:25N 47°36' W 002°51'0 0.0
2017-Aug-22 03:58N 47°36' W 002°51'0 0.0
2017-Aug-22 03:19N 47°36' W 002°51'0 0.0
2017-Aug-22 02:49N 47°36' W 002°51'0 0.0
2017-Aug-22 02:22N 47°36' W 002°51'0 0.0
2017-Aug-22 01:55N 47°36' W 002°51'0 0.0
2017-Aug-22 01:13N 47°36' W 002°51'0 0.0
2017-Aug-22 00:55N 47°36' W 002°51'0 0.0
2017-Aug-22 00:28N 47°36' W 002°51'0 0.0
2017-Aug-21 23:58N 47°36' W 002°51'0 0.0
2017-Aug-21 23:28N 47°36' W 002°51'0 0.0
2017-Aug-21 22:55N 47°36' W 002°51'0 0.0
2017-Aug-21 22:28N 47°36' W 002°51'0 0.0
2017-Aug-21 21:58N 47°36' W 002°51'0 0.0
2017-Aug-21 21:28N 47°36' W 002°51'0 0.0
2017-Aug-21 20:58N 47°36' W 002°51'0 0.0
2017-Aug-21 20:25N 47°36' W 002°51'0 0.0
2017-Aug-21 19:58N 47°36' W 002°51'0 0.0
2017-Aug-21 19:28N 47°36' W 002°51'0 0.0
2017-Aug-21 18:58N 47°36' W 002°51'0 0.0
2017-Aug-21 18:28N 47°36' W 002°51'0 0.0
2017-Aug-21 17:55N 47°36' W 002°51'0 0.0
2017-Aug-21 17:22N 47°36' W 002°51'0 0.0
2017-Aug-21 16:58N 47°36' W 002°51'0 0.0
2017-Aug-21 16:28N 47°36' W 002°51'0 0.0
2017-Aug-21 15:58N 47°36' W 002°51'0 0.0
2017-Aug-21 15:25N 47°36' W 002°51'0 0.0
2017-Aug-21 14:58N 47°36' W 002°51'0 0.0
2017-Aug-21 14:28N 47°36' W 002°51'0 0.0
2017-Aug-21 13:58N 47°36' W 002°51'0 0.3
2017-Aug-21 13:30N 47°36' W 002°51'2 4.7
2017-Aug-21 13:00N 47°34' W 002°54'4 6.8
2017-Aug-21 12:29N 47°31' W 002°57'3 6.2
2017-Aug-21 11:56N 47°28' W 002°60'7 5.9
2017-Aug-21 10:48N 47°26' W 003°09'2 4.9
2017-Aug-21 10:24N 47°27' W 003°11'2 4.8
2017-Aug-21 09:59N 47°29' W 003°12'2 5.1
2017-Aug-21 09:30N 47°31' W 003°14'3 5.2
2017-Aug-21 09:00N 47°33' W 003°17'2 4.7
2017-Aug-21 08:30N 47°35' W 003°19'2 4.7
2017-Aug-21 08:00N 47°37' W 003°20'2 4.6
2017-Aug-21 07:30N 47°39' W 003°22'2 4.5
2017-Aug-21 07:00N 47°41' W 003°22'2 4.9
2017-Aug-21 06:30N 47°43' W 003°22'1 2.4
2017-Aug-21 05:58N 47°45' W 003°21'0 0.0
2017-Aug-21 05:28N 47°45' W 003°21'0 0.0
2017-Aug-21 04:58N 47°45' W 003°21'0 0.0
2017-Aug-21 04:28N 47°45' W 003°21'0 0.0
2017-Aug-21 03:58N 47°45' W 003°21'0 0.0
2017-Aug-21 03:28N 47°45' W 003°21'0 0.0
2017-Aug-21 02:58N 47°45' W 003°21'0 0.0
2017-Aug-21 02:28N 47°45' W 003°21'0 0.0
2017-Aug-21 01:58N 47°45' W 003°21'0 0.0
2017-Aug-21 01:28N 47°45' W 003°21'0 0.0
2017-Aug-21 00:58N 47°45' W 003°21'0 0.0
2017-Aug-21 00:28N 47°45' W 003°21'0 0.0
2017-Aug-20 23:58N 47°45' W 003°21'0 0.0
2017-Aug-20 23:28N 47°45' W 003°21'0 0.0
2017-Aug-20 22:58N 47°45' W 003°21'0 0.0
2017-Aug-20 22:28N 47°45' W 003°21'0 0.0
2017-Aug-20 21:58N 47°45' W 003°21'0 0.0
2017-Aug-20 21:28N 47°45' W 003°21'0 0.0
2017-Aug-20 20:58N 47°45' W 003°21'0 0.0
2017-Aug-20 20:28N 47°45' W 003°21'0 0.0
2017-Aug-20 19:58N 47°45' W 003°21'0 0.0
2017-Aug-20 19:28N 47°45' W 003°21'0 0.0
2017-Aug-20 18:58N 47°45' W 003°21'0 0.0
2017-Aug-20 18:28N 47°45' W 003°21'0 0.0
2017-Aug-20 17:55N 47°45' W 003°21'0 0.0
2017-Aug-20 17:25N 47°45' W 003°21'0 0.0
2017-Aug-20 16:58N 47°45' W 003°21'0 0.0
2017-Aug-20 16:28N 47°45' W 003°21'0 0.0
2017-Aug-20 15:58N 47°45' W 003°21'0 0.0
2017-Aug-20 15:28N 47°45' W 003°21'0 0.0
2017-Aug-20 14:58N 47°45' W 003°21'0 0.0
2017-Aug-20 14:28N 47°45' W 003°21'0 0.0
2017-Aug-20 13:58N 47°45' W 003°21'0 0.0
2017-Aug-20 13:28N 47°45' W 003°21'0 0.0
2017-Aug-20 12:58N 47°45' W 003°21'0 0.0
2017-Aug-20 12:28N 47°45' W 003°21'0 0.0
2017-Aug-20 11:58N 47°45' W 003°21'0 0.0
2017-Aug-20 11:28N 47°45' W 003°21'0 0.0
2017-Aug-20 10:58N 47°45' W 003°21'0 0.0
2017-Aug-20 10:28N 47°45' W 003°21'0 0.0
2017-Aug-20 09:58N 47°45' W 003°21'0 0.0
2017-Aug-20 09:28N 47°45' W 003°21'0 0.0
2017-Aug-20 08:58N 47°45' W 003°21'0 0.0
2017-Aug-20 08:28N 47°45' W 003°21'0 0.0
2017-Aug-20 07:58N 47°45' W 003°21'0 0.0
2017-Aug-20 07:28N 47°45' W 003°21'0 0.0
2017-Aug-20 06:55N 47°45' W 003°21'0 0.0
2017-Aug-20 06:28N 47°45' W 003°21'0 0.0
2017-Aug-20 05:58N 47°45' W 003°21'0 0.0
2017-Aug-20 05:25N 47°45' W 003°21'0 0.0
2017-Aug-20 04:58N 47°45' W 003°21'0 0.0
2017-Aug-20 04:28N 47°45' W 003°21'0 0.0
2017-Aug-20 03:58N 47°45' W 003°21'0 0.0
2017-Aug-20 03:28N 47°45' W 003°21'0 0.0
2017-Aug-20 02:58N 47°45' W 003°21'0 0.0
2017-Aug-20 02:28N 47°45' W 003°21'0 0.0
2017-Aug-20 01:58N 47°45' W 003°21'0 0.0
2017-Aug-20 01:28N 47°45' W 003°21'0 0.0
2017-Aug-20 00:58N 47°45' W 003°21'0 0.0
2017-Aug-20 00:28N 47°45' W 003°21'0 0.0
2017-Aug-19 23:58N 47°45' W 003°21'0 0.0
2017-Aug-19 23:28N 47°45' W 003°21'0 0.0
2017-Aug-19 22:58N 47°45' W 003°21'0 0.0
2017-Aug-19 22:28N 47°45' W 003°21'0 0.0
2017-Aug-19 21:58N 47°45' W 003°21'0 0.0
2017-Aug-19 21:28N 47°45' W 003°21'0 0.0
2017-Aug-19 20:58N 47°45' W 003°21'0 0.0
2017-Aug-19 20:25N 47°45' W 003°21'0 0.0
2017-Aug-19 19:58N 47°45' W 003°21'0 0.0
2017-Aug-19 19:28N 47°45' W 003°21'0 0.0
2017-Aug-19 18:55N 47°45' W 003°21'0 0.0
2017-Aug-19 18:28N 47°45' W 003°21'0 0.0
2017-Aug-19 17:58N 47°45' W 003°21'0 0.0
2017-Aug-19 17:28N 47°45' W 003°21'0 0.0
2017-Aug-19 16:58N 47°45' W 003°21'0 0.0
2017-Aug-19 16:28N 47°45' W 003°21'0 0.0
2017-Aug-19 15:58N 47°45' W 003°21'0 0.0
2017-Aug-19 15:28N 47°45' W 003°21'0 0.0
2017-Aug-19 14:58N 47°45' W 003°21'0 0.0
2017-Aug-19 13:58N 47°45' W 003°21'1 1.6
2017-Aug-19 13:30N 47°44' W 003°21'2 4.0
2017-Aug-19 13:00N 47°42' W 003°22'2 4.9
2017-Aug-19 12:30N 47°40' W 003°25'2 3.5
2017-Aug-19 11:55N 47°39' W 003°27'0 0.0
2017-Aug-19 11:25N 47°39' W 003°27'0 0.0
2017-Aug-19 10:58N 47°39' W 003°27'0 0.0
2017-Aug-19 10:28N 47°39' W 003°27'0 0.0
2017-Aug-19 09:55N 47°39' W 003°27'0 0.0
2017-Aug-19 09:22N 47°39' W 003°27'0 0.0
2017-Aug-19 08:55N 47°39' W 003°27'0 0.0
2017-Aug-19 08:28N 47°39' W 003°27'0 0.0
2017-Aug-19 07:58N 47°39' W 003°27'0 0.0
2017-Aug-19 07:28N 47°39' W 003°27'0 0.0
2017-Aug-19 06:58N 47°39' W 003°27'0 0.0
2017-Aug-19 06:28N 47°39' W 003°27'0 0.0
2017-Aug-19 05:58N 47°39' W 003°27'0 0.0
2017-Aug-19 05:25N 47°39' W 003°27'0 0.0
2017-Aug-19 04:58N 47°39' W 003°27'0 0.0
2017-Aug-19 04:25N 47°39' W 003°27'0 0.0
2017-Aug-19 03:58N 47°39' W 003°27'0 0.0
2017-Aug-19 03:25N 47°39' W 003°27'0 0.0
2017-Aug-19 02:58N 47°39' W 003°27'0 0.0
2017-Aug-19 02:28N 47°39' W 003°27'0 0.0
2017-Aug-19 01:58N 47°39' W 003°27'0 0.0
2017-Aug-19 01:28N 47°39' W 003°27'0 0.0
2017-Aug-19 00:58N 47°39' W 003°27'0 0.0
2017-Aug-19 00:28N 47°39' W 003°27'0 0.0
2017-Aug-18 23:58N 47°39' W 003°27'0 0.0
2017-Aug-18 23:28N 47°39' W 003°27'0 0.0
2017-Aug-18 22:55N 47°39' W 003°27'0 0.0
2017-Aug-18 22:22N 47°39' W 003°27'0 0.0
2017-Aug-18 21:58N 47°39' W 003°27'0 0.0
2017-Aug-18 21:28N 47°39' W 003°27'0 0.0
2017-Aug-18 20:55N 47°39' W 003°27'0 0.0
2017-Aug-18 20:28N 47°39' W 003°27'0 0.0
2017-Aug-18 19:58N 47°39' W 003°27'0 0.0
2017-Aug-18 19:28N 47°39' W 003°27'0 0.0
2017-Aug-18 18:49N 47°39' W 003°27'0 0.0
2017-Aug-18 18:25N 47°39' W 003°27'0 0.0
2017-Aug-18 17:58N 47°39' W 003°27'0 0.0
2017-Aug-18 17:28N 47°39' W 003°27'0 0.0
2017-Aug-18 16:58N 47°39' W 003°27'0 0.0
2017-Aug-18 16:25N 47°39' W 003°27'0 0.0
2017-Aug-18 15:58N 47°39' W 003°27'0 0.0
2017-Aug-18 15:28N 47°39' W 003°27'0 0.0
2017-Aug-18 14:49N 47°39' W 003°27'0 0.0
2017-Aug-18 14:28N 47°39' W 003°27'0 0.0
2017-Aug-18 13:28N 47°39' W 003°27'0 0.0
2017-Aug-18 12:55N 47°39' W 003°27'0 0.0
2017-Aug-18 12:28N 47°39' W 003°27'0 0.0
2017-Aug-18 11:58N 47°39' W 003°27'0 0.0
2017-Aug-18 11:28N 47°39' W 003°27'0 0.0
2017-Aug-18 10:58N 47°39' W 003°27'0 0.0
2017-Aug-18 10:25N 47°39' W 003°27'0 0.0
2017-Aug-18 09:43N 47°39' W 003°27'0 0.0
2017-Aug-18 09:28N 47°39' W 003°27'0 0.0
2017-Aug-18 08:58N 47°39' W 003°27'0 0.0
2017-Aug-18 08:28N 47°39' W 003°27'0 0.0
2017-Aug-18 07:58N 47°39' W 003°27'0 0.0
2017-Aug-18 07:25N 47°39' W 003°27'0 0.0
2017-Aug-18 06:58N 47°39' W 003°27'0 0.0
2017-Aug-18 06:28N 47°39' W 003°27'  

Dump ship's entire track history